sensor_id;sensor_type;location;lat;lon;timestamp;temperature;humidity
78733;DHT22;68056;52.530;5.454;2023-04-29T00:00:46;10.40;71.70
78733;DHT22;68056;52.530;5.454;2023-04-29T00:03:12;10.40;71.70
78733;DHT22;68056;52.530;5.454;2023-04-29T00:05:38;10.40;71.70
78733;DHT22;68056;52.530;5.454;2023-04-29T00:08:04;10.40;71.60
78733;DHT22;68056;52.530;5.454;2023-04-29T00:10:29;10.40;71.60
78733;DHT22;68056;52.530;5.454;2023-04-29T00:12:55;10.40;71.60
78733;DHT22;68056;52.530;5.454;2023-04-29T00:15:20;10.40;71.60
78733;DHT22;68056;52.530;5.454;2023-04-29T00:17:46;10.40;71.50
78733;DHT22;68056;52.530;5.454;2023-04-29T00:20:12;10.40;71.50
78733;DHT22;68056;52.530;5.454;2023-04-29T00:22:38;10.40;71.50
78733;DHT22;68056;52.530;5.454;2023-04-29T00:25:04;10.40;71.40
78733;DHT22;68056;52.530;5.454;2023-04-29T00:27:30;10.40;71.40
78733;DHT22;68056;52.530;5.454;2023-04-29T00:29:57;10.40;71.40
78733;DHT22;68056;52.530;5.454;2023-04-29T00:32:23;10.40;71.30
78733;DHT22;68056;52.530;5.454;2023-04-29T00:34:48;10.40;71.30
78733;DHT22;68056;52.530;5.454;2023-04-29T00:37:14;10.40;71.30
78733;DHT22;68056;52.530;5.454;2023-04-29T00:39:40;10.40;71.20
78733;DHT22;68056;52.530;5.454;2023-04-29T00:42:06;10.40;71.20
78733;DHT22;68056;52.530;5.454;2023-04-29T00:44:32;10.40;71.30
78733;DHT22;68056;52.530;5.454;2023-04-29T00:46:58;10.40;71.20
78733;DHT22;68056;52.530;5.454;2023-04-29T00:49:25;10.30;71.20
78733;DHT22;68056;52.530;5.454;2023-04-29T00:51:51;10.30;71.20
78733;DHT22;68056;52.530;5.454;2023-04-29T00:54:17;10.30;71.10
78733;DHT22;68056;52.530;5.454;2023-04-29T00:56:45;10.30;71.10
78733;DHT22;68056;52.530;5.454;2023-04-29T00:59:11;10.30;71.10
78733;DHT22;68056;52.530;5.454;2023-04-29T01:01:37;10.30;71.00
78733;DHT22;68056;52.530;5.454;2023-04-29T01:04:04;10.30;71.00
78733;DHT22;68056;52.530;5.454;2023-04-29T01:06:48;10.30;71.00
78733;DHT22;68056;52.530;5.454;2023-04-29T01:09:29;10.30;71.00
78733;DHT22;68056;52.530;5.454;2023-04-29T01:12:14;10.30;71.10
78733;DHT22;68056;52.530;5.454;2023-04-29T01:14:50;10.30;71.00
78733;DHT22;68056;52.530;5.454;2023-04-29T01:17:20;10.30;71.00
78733;DHT22;68056;52.530;5.454;2023-04-29T01:19:53;10.30;71.10
78733;DHT22;68056;52.530;5.454;2023-04-29T01:22:20;10.30;71.10
78733;DHT22;68056;52.530;5.454;2023-04-29T01:24:47;10.30;71.10
78733;DHT22;68056;52.530;5.454;2023-04-29T01:32:52;10.30;71.20
78733;DHT22;68056;52.530;5.454;2023-04-29T01:38:05;10.30;71.20
78733;DHT22;68056;52.530;5.454;2023-04-29T01:40:42;10.30;71.20
78733;DHT22;68056;52.530;5.454;2023-04-29T01:43:08;10.20;71.30
78733;DHT22;68056;52.530;5.454;2023-04-29T01:45:37;10.20;71.30
78733;DHT22;68056;52.530;5.454;2023-04-29T01:48:06;10.20;71.20
78733;DHT22;68056;52.530;5.454;2023-04-29T01:50:32;10.20;71.20
78733;DHT22;68056;52.530;5.454;2023-04-29T01:52:57;10.20;71.20
78733;DHT22;68056;52.530;5.454;2023-04-29T01:55:23;10.20;71.20
78733;DHT22;68056;52.530;5.454;2023-04-29T01:57:48;10.20;71.20
78733;DHT22;68056;52.530;5.454;2023-04-29T02:00:14;10.20;71.20
78733;DHT22;68056;52.530;5.454;2023-04-29T02:02:40;10.20;71.20
78733;DHT22;68056;52.530;5.454;2023-04-29T02:05:06;10.20;71.20
78733;DHT22;68056;52.530;5.454;2023-04-29T02:07:31;10.20;71.20
78733;DHT22;68056;52.530;5.454;2023-04-29T02:09:57;10.20;71.20
78733;DHT22;68056;52.530;5.454;2023-04-29T02:12:22;10.20;71.20
78733;DHT22;68056;52.530;5.454;2023-04-29T02:14:51;10.20;71.20
78733;DHT22;68056;52.530;5.454;2023-04-29T02:17:17;10.20;71.20
78733;DHT22;68056;52.530;5.454;2023-04-29T02:19:43;10.20;71.20
78733;DHT22;68056;52.530;5.454;2023-04-29T02:22:08;10.20;71.20
78733;DHT22;68056;52.530;5.454;2023-04-29T02:24:37;10.20;71.20
78733;DHT22;68056;52.530;5.454;2023-04-29T02:27:02;10.20;71.20
78733;DHT22;68056;52.530;5.454;2023-04-29T02:29:30;10.20;71.20
78733;DHT22;68056;52.530;5.454;2023-04-29T02:31:56;10.20;71.20
78733;DHT22;68056;52.530;5.454;2023-04-29T02:34:21;10.20;71.30
78733;DHT22;68056;52.530;5.454;2023-04-29T02:36:48;10.20;71.20
78733;DHT22;68056;52.530;5.454;2023-04-29T02:39:14;10.20;71.20
78733;DHT22;68056;52.530;5.454;2023-04-29T02:41:40;10.20;71.20
78733;DHT22;68056;52.530;5.454;2023-04-29T02:44:06;10.20;71.20
78733;DHT22;68056;52.530;5.454;2023-04-29T02:46:32;10.20;71.20
78733;DHT22;68056;52.530;5.454;2023-04-29T02:48:59;10.20;71.20
78733;DHT22;68056;52.530;5.454;2023-04-29T02:51:26;10.20;71.20
78733;DHT22;68056;52.530;5.454;2023-04-29T02:53:52;10.20;71.20
78733;DHT22;68056;52.530;5.454;2023-04-29T02:56:18;10.20;71.20
78733;DHT22;68056;52.530;5.454;2023-04-29T02:58:43;10.20;71.20
78733;DHT22;68056;52.530;5.454;2023-04-29T03:01:09;10.20;71.30
78733;DHT22;68056;52.530;5.454;2023-04-29T03:03:35;10.20;71.30
78733;DHT22;68056;52.530;5.454;2023-04-29T03:06:00;10.20;71.30
78733;DHT22;68056;52.530;5.454;2023-04-29T03:08:26;10.10;71.40
78733;DHT22;68056;52.530;5.454;2023-04-29T03:10:52;10.10;71.40
78733;DHT22;68056;52.530;5.454;2023-04-29T03:13:18;10.10;71.40
78733;DHT22;68056;52.530;5.454;2023-04-29T03:15:43;10.10;71.50
78733;DHT22;68056;52.530;5.454;2023-04-29T03:18:09;10.10;71.50
78733;DHT22;68056;52.530;5.454;2023-04-29T03:20:35;10.10;71.40
78733;DHT22;68056;52.530;5.454;2023-04-29T03:23:01;10.10;71.40
78733;DHT22;68056;52.530;5.454;2023-04-29T03:25:27;10.10;71.40
78733;DHT22;68056;52.530;5.454;2023-04-29T03:27:53;10.20;71.40
78733;DHT22;68056;52.530;5.454;2023-04-29T03:30:18;10.20;71.40
78733;DHT22;68056;52.530;5.454;2023-04-29T03:32:44;10.10;71.40
78733;DHT22;68056;52.530;5.454;2023-04-29T03:35:10;10.10;71.30
78733;DHT22;68056;52.530;5.454;2023-04-29T03:37:38;10.20;71.30
78733;DHT22;68056;52.530;5.454;2023-04-29T03:40:05;10.20;71.20
78733;DHT22;68056;52.530;5.454;2023-04-29T03:42:30;10.10;71.20
78733;DHT22;68056;52.530;5.454;2023-04-29T03:44:56;10.20;71.20
78733;DHT22;68056;52.530;5.454;2023-04-29T03:47:21;10.20;71.10
78733;DHT22;68056;52.530;5.454;2023-04-29T03:49:47;10.20;71.20
78733;DHT22;68056;52.530;5.454;2023-04-29T03:52:13;10.20;71.10
78733;DHT22;68056;52.530;5.454;2023-04-29T03:54:40;10.10;71.20
78733;DHT22;68056;52.530;5.454;2023-04-29T03:57:06;10.20;71.20
78733;DHT22;68056;52.530;5.454;2023-04-29T03:59:31;10.20;71.20
78733;DHT22;68056;52.530;5.454;2023-04-29T04:01:57;10.10;71.20
78733;DHT22;68056;52.530;5.454;2023-04-29T04:04:23;10.20;71.30
78733;DHT22;68056;52.530;5.454;2023-04-29T04:06:48;10.10;71.30
78733;DHT22;68056;52.530;5.454;2023-04-29T04:09:17;10.20;71.30
78733;DHT22;68056;52.530;5.454;2023-04-29T04:11:43;10.20;71.30
78733;DHT22;68056;52.530;5.454;2023-04-29T04:14:09;10.20;71.30
78733;DHT22;68056;52.530;5.454;2023-04-29T04:16:34;10.10;71.40
78733;DHT22;68056;52.530;5.454;2023-04-29T04:19:00;10.20;71.30
78733;DHT22;68056;52.530;5.454;2023-04-29T04:21:25;10.10;71.30
78733;DHT22;68056;52.530;5.454;2023-04-29T04:23:52;10.10;71.40
78733;DHT22;68056;52.530;5.454;2023-04-29T04:26:17;10.10;71.40
78733;DHT22;68056;52.530;5.454;2023-04-29T04:28:45;10.10;71.40
78733;DHT22;68056;52.530;5.454;2023-04-29T04:31:10;10.10;71.30
78733;DHT22;68056;52.530;5.454;2023-04-29T04:33:39;10.10;71.40
78733;DHT22;68056;52.530;5.454;2023-04-29T04:36:07;10.10;71.30
78733;DHT22;68056;52.530;5.454;2023-04-29T04:38:33;10.10;71.30
78733;DHT22;68056;52.530;5.454;2023-04-29T04:40:59;10.10;71.30
78733;DHT22;68056;52.530;5.454;2023-04-29T04:43:24;10.10;71.40
78733;DHT22;68056;52.530;5.454;2023-04-29T04:45:50;10.10;71.40
78733;DHT22;68056;52.530;5.454;2023-04-29T04:48:16;10.10;71.30
78733;DHT22;68056;52.530;5.454;2023-04-29T04:50:42;10.10;71.30
78733;DHT22;68056;52.530;5.454;2023-04-29T04:53:07;10.10;71.30
78733;DHT22;68056;52.530;5.454;2023-04-29T04:55:33;10.10;71.20
78733;DHT22;68056;52.530;5.454;2023-04-29T04:57:58;10.10;71.20
78733;DHT22;68056;52.530;5.454;2023-04-29T05:00:24;10.10;71.20
78733;DHT22;68056;52.530;5.454;2023-04-29T05:02:53;10.10;71.20
78733;DHT22;68056;52.530;5.454;2023-04-29T05:05:18;10.10;71.30
78733;DHT22;68056;52.530;5.454;2023-04-29T05:07:44;10.20;71.20
78733;DHT22;68056;52.530;5.454;2023-04-29T05:10:13;10.20;71.30
78733;DHT22;68056;52.530;5.454;2023-04-29T05:12:38;10.20;71.30
78733;DHT22;68056;52.530;5.454;2023-04-29T05:15:04;10.20;71.30
78733;DHT22;68056;52.530;5.454;2023-04-29T05:17:30;10.20;71.30
78733;DHT22;68056;52.530;5.454;2023-04-29T05:19:55;10.20;71.30
78733;DHT22;68056;52.530;5.454;2023-04-29T05:22:21;10.20;71.20
78733;DHT22;68056;52.530;5.454;2023-04-29T05:24:47;10.20;71.20
78733;DHT22;68056;52.530;5.454;2023-04-29T05:27:13;10.20;71.20
78733;DHT22;68056;52.530;5.454;2023-04-29T05:29:39;10.20;71.10
78733;DHT22;68056;52.530;5.454;2023-04-29T05:32:05;10.20;71.10
78733;DHT22;68056;52.530;5.454;2023-04-29T05:34:30;10.20;71.00
78733;DHT22;68056;52.530;5.454;2023-04-29T05:36:57;10.20;71.10
78733;DHT22;68056;52.530;5.454;2023-04-29T05:39:23;10.30;71.00
78733;DHT22;68056;52.530;5.454;2023-04-29T05:41:48;10.30;71.00
78733;DHT22;68056;52.530;5.454;2023-04-29T05:44:14;10.30;70.90
78733;DHT22;68056;52.530;5.454;2023-04-29T05:46:40;10.30;70.80
78733;DHT22;68056;52.530;5.454;2023-04-29T05:49:05;10.30;70.70
78733;DHT22;68056;52.530;5.454;2023-04-29T05:51:31;10.40;70.60
78733;DHT22;68056;52.530;5.454;2023-04-29T05:53:57;10.40;70.50
78733;DHT22;68056;52.530;5.454;2023-04-29T05:56:24;10.40;70.40
78733;DHT22;68056;52.530;5.454;2023-04-29T05:58:50;10.50;70.30
78733;DHT22;68056;52.530;5.454;2023-04-29T06:01:16;10.60;70.20
78733;DHT22;68056;52.530;5.454;2023-04-29T06:03:42;10.60;70.10
78733;DHT22;68056;52.530;5.454;2023-04-29T06:06:07;10.70;70.00
78733;DHT22;68056;52.530;5.454;2023-04-29T06:08:33;10.70;69.90
78733;DHT22;68056;52.530;5.454;2023-04-29T06:10:59;10.70;69.90
78733;DHT22;68056;52.530;5.454;2023-04-29T06:13:24;10.70;69.90
78733;DHT22;68056;52.530;5.454;2023-04-29T06:15:50;10.80;69.80
78733;DHT22;68056;52.530;5.454;2023-04-29T06:18:16;10.80;69.70
78733;DHT22;68056;52.530;5.454;2023-04-29T06:20:41;10.80;69.60
78733;DHT22;68056;52.530;5.454;2023-04-29T06:23:07;10.80;69.60
78733;DHT22;68056;52.530;5.454;2023-04-29T06:25:33;10.90;69.50
78733;DHT22;68056;52.530;5.454;2023-04-29T06:27:58;11.10;69.40
78733;DHT22;68056;52.530;5.454;2023-04-29T06:30:25;11.40;69.10
78733;DHT22;68056;52.530;5.454;2023-04-29T06:32:50;11.80;68.60
78733;DHT22;68056;52.530;5.454;2023-04-29T06:35:16;12.00;68.20
78733;DHT22;68056;52.530;5.454;2023-04-29T06:37:42;12.30;67.80
78733;DHT22;68056;52.530;5.454;2023-04-29T06:40:07;12.50;67.50
78733;DHT22;68056;52.530;5.454;2023-04-29T06:42:33;12.50;67.30
78733;DHT22;68056;52.530;5.454;2023-04-29T06:44:59;12.80;67.10
78733;DHT22;68056;52.530;5.454;2023-04-29T06:47:24;12.90;66.90
78733;DHT22;68056;52.530;5.454;2023-04-29T06:49:53;13.10;66.80
78733;DHT22;68056;52.530;5.454;2023-04-29T06:52:18;13.20;66.70
78733;DHT22;68056;52.530;5.454;2023-04-29T06:54:44;13.30;66.50
78733;DHT22;68056;52.530;5.454;2023-04-29T06:57:09;13.50;66.30
78733;DHT22;68056;52.530;5.454;2023-04-29T06:59:35;13.50;66.00
78733;DHT22;68056;52.530;5.454;2023-04-29T07:02:01;13.50;66.00
78733;DHT22;68056;52.530;5.454;2023-04-29T07:04:26;13.60;65.80
78733;DHT22;68056;52.530;5.454;2023-04-29T07:06:52;13.80;65.60
78733;DHT22;68056;52.530;5.454;2023-04-29T07:09:18;13.90;65.40
78733;DHT22;68056;52.530;5.454;2023-04-29T07:11:44;14.10;65.20
78733;DHT22;68056;52.530;5.454;2023-04-29T07:14:09;14.20;64.90
78733;DHT22;68056;52.530;5.454;2023-04-29T07:16:41;14.40;64.60
78733;DHT22;68056;52.530;5.454;2023-04-29T07:19:07;14.50;64.20
78733;DHT22;68056;52.530;5.454;2023-04-29T07:21:32;14.60;64.20
78733;DHT22;68056;52.530;5.454;2023-04-29T07:24:15;14.80;63.90
78733;DHT22;68056;52.530;5.454;2023-04-29T07:26:42;15.00;63.70
78733;DHT22;68056;52.530;5.454;2023-04-29T07:29:09;15.20;63.30
78733;DHT22;68056;52.530;5.454;2023-04-29T07:31:34;15.30;63.00
78733;DHT22;68056;52.530;5.454;2023-04-29T07:34:00;15.40;62.90
78733;DHT22;68056;52.530;5.454;2023-04-29T07:36:26;15.50;62.80
78733;DHT22;68056;52.530;5.454;2023-04-29T07:38:53;15.70;62.60
78733;DHT22;68056;52.530;5.454;2023-04-29T07:41:21;15.80;62.30
78733;DHT22;68056;52.530;5.454;2023-04-29T07:43:47;16.00;62.10
78733;DHT22;68056;52.530;5.454;2023-04-29T07:46:12;16.10;61.80
78733;DHT22;68056;52.530;5.454;2023-04-29T07:48:38;16.20;61.60
78733;DHT22;68056;52.530;5.454;2023-04-29T07:51:04;16.40;61.40
78733;DHT22;68056;52.530;5.454;2023-04-29T07:53:31;16.60;61.20
78733;DHT22;68056;52.530;5.454;2023-04-29T07:55:58;16.80;61.00
78733;DHT22;68056;52.530;5.454;2023-04-29T07:58:23;17.00;60.80
78733;DHT22;68056;52.530;5.454;2023-04-29T08:00:49;17.20;60.50
78733;DHT22;68056;52.530;5.454;2023-04-29T08:03:14;17.40;60.20
78733;DHT22;68056;52.530;5.454;2023-04-29T08:05:40;17.50;59.80
78733;DHT22;68056;52.530;5.454;2023-04-29T08:08:08;17.50;59.70
78733;DHT22;68056;52.530;5.454;2023-04-29T08:10:36;17.60;59.80
78733;DHT22;68056;52.530;5.454;2023-04-29T08:13:05;17.80;59.60
78733;DHT22;68056;52.530;5.454;2023-04-29T08:15:30;17.90;59.50
78733;DHT22;68056;52.530;5.454;2023-04-29T08:17:56;18.00;59.20
78733;DHT22;68056;52.530;5.454;2023-04-29T08:20:22;18.10;59.20
78733;DHT22;68056;52.530;5.454;2023-04-29T08:22:47;18.20;58.90
78733;DHT22;68056;52.530;5.454;2023-04-29T08:25:13;18.20;58.70
78733;DHT22;68056;52.530;5.454;2023-04-29T08:27:38;18.20;58.30
78733;DHT22;68056;52.530;5.454;2023-04-29T08:30:04;18.30;58.40
78733;DHT22;68056;52.530;5.454;2023-04-29T08:32:30;18.40;57.90
78733;DHT22;68056;52.530;5.454;2023-04-29T08:34:56;18.40;58.00
78733;DHT22;68056;52.530;5.454;2023-04-29T08:37:21;18.40;58.20
78733;DHT22;68056;52.530;5.454;2023-04-29T08:39:47;18.50;58.20
78733;DHT22;68056;52.530;5.454;2023-04-29T08:42:13;18.50;57.90
78733;DHT22;68056;52.530;5.454;2023-04-29T08:44:42;18.50;57.70
78733;DHT22;68056;52.530;5.454;2023-04-29T08:47:08;18.60;57.80
78733;DHT22;68056;52.530;5.454;2023-04-29T08:49:34;18.80;57.60
78733;DHT22;68056;52.530;5.454;2023-04-29T08:52:02;18.90;57.50
78733;DHT22;68056;52.530;5.454;2023-04-29T08:54:28;19.00;57.20
78733;DHT22;68056;52.530;5.454;2023-04-29T08:56:54;19.20;57.20
78733;DHT22;68056;52.530;5.454;2023-04-29T08:59:22;19.50;57.10
78733;DHT22;68056;52.530;5.454;2023-04-29T09:01:50;19.70;56.80
78733;DHT22;68056;52.530;5.454;2023-04-29T09:04:33;19.70;56.40
78733;DHT22;68056;52.530;5.454;2023-04-29T09:07:03;19.70;56.50
78733;DHT22;68056;52.530;5.454;2023-04-29T09:09:29;19.70;56.40
78733;DHT22;68056;52.530;5.454;2023-04-29T09:11:55;19.90;56.40
78733;DHT22;68056;52.530;5.454;2023-04-29T09:14:22;20.00;56.10
78733;DHT22;68056;52.530;5.454;2023-04-29T09:16:48;20.10;56.00
78733;DHT22;68056;52.530;5.454;2023-04-29T09:19:29;20.20;56.00
78733;DHT22;68056;52.530;5.454;2023-04-29T09:21:56;20.40;55.90
78733;DHT22;68056;52.530;5.454;2023-04-29T09:24:26;20.50;55.90
78733;DHT22;68056;52.530;5.454;2023-04-29T09:26:52;20.60;55.60
78733;DHT22;68056;52.530;5.454;2023-04-29T09:29:18;20.70;55.40
78733;DHT22;68056;52.530;5.454;2023-04-29T09:31:45;20.70;55.20
78733;DHT22;68056;52.530;5.454;2023-04-29T09:34:11;20.80;54.90
78733;DHT22;68056;52.530;5.454;2023-04-29T09:36:48;20.80;54.80
78733;DHT22;68056;52.530;5.454;2023-04-29T09:39:19;20.90;54.70
78733;DHT22;68056;52.530;5.454;2023-04-29T09:44:17;21.00;54.80
78733;DHT22;68056;52.530;5.454;2023-04-29T09:46:43;21.10;54.60
78733;DHT22;68056;52.530;5.454;2023-04-29T09:49:26;21.30;54.20
78733;DHT22;68056;52.530;5.454;2023-04-29T09:51:53;21.30;54.10
78733;DHT22;68056;52.530;5.454;2023-04-29T09:54:20;21.40;54.00
78733;DHT22;68056;52.530;5.454;2023-04-29T09:56:51;21.50;54.00
78733;DHT22;68056;52.530;5.454;2023-04-29T09:59:18;21.50;53.70
78733;DHT22;68056;52.530;5.454;2023-04-29T10:01:49;21.70;53.50
78733;DHT22;68056;52.530;5.454;2023-04-29T10:04:16;21.80;53.50
78733;DHT22;68056;52.530;5.454;2023-04-29T10:06:43;21.90;53.30
78733;DHT22;68056;52.530;5.454;2023-04-29T10:09:12;22.00;52.80
78733;DHT22;68056;52.530;5.454;2023-04-29T10:11:47;22.00;53.00
78733;DHT22;68056;52.530;5.454;2023-04-29T10:14:21;22.10;52.80
78733;DHT22;68056;52.530;5.454;2023-04-29T10:19:38;22.10;52.30
78733;DHT22;68056;52.530;5.454;2023-04-29T10:22:08;22.10;52.30
78733;DHT22;68056;52.530;5.454;2023-04-29T10:24:38;22.20;52.20
78733;DHT22;68056;52.530;5.454;2023-04-29T10:27:09;22.20;52.30
78733;DHT22;68056;52.530;5.454;2023-04-29T10:29:37;22.20;52.00
78733;DHT22;68056;52.530;5.454;2023-04-29T10:32:06;22.30;52.20
78733;DHT22;68056;52.530;5.454;2023-04-29T10:34:36;22.20;52.00
78733;DHT22;68056;52.530;5.454;2023-04-29T10:37:03;22.20;52.00
78733;DHT22;68056;52.530;5.454;2023-04-29T10:39:39;22.40;51.70
78733;DHT22;68056;52.530;5.454;2023-04-29T10:42:19;22.40;51.30
78733;DHT22;68056;52.530;5.454;2023-04-29T10:45:16;22.30;51.50
78733;DHT22;68056;52.530;5.454;2023-04-29T10:50:38;22.50;51.60
78733;DHT22;68056;52.530;5.454;2023-04-29T10:53:06;22.50;51.20
78733;DHT22;68056;52.530;5.454;2023-04-29T10:55:38;22.50;51.30
78733;DHT22;68056;52.530;5.454;2023-04-29T10:58:05;22.60;51.10
78733;DHT22;68056;52.530;5.454;2023-04-29T11:00:32;22.70;51.10
78733;DHT22;68056;52.530;5.454;2023-04-29T11:03:00;22.70;51.00
78733;DHT22;68056;52.530;5.454;2023-04-29T11:05:34;22.70;50.80
78733;DHT22;68056;52.530;5.454;2023-04-29T11:08:13;22.80;50.80
78733;DHT22;68056;52.530;5.454;2023-04-29T11:10:47;22.80;50.90
78733;DHT22;68056;52.530;5.454;2023-04-29T11:13:23;22.80;50.90
78733;DHT22;68056;52.530;5.454;2023-04-29T11:16:03;22.90;50.80
78733;DHT22;68056;52.530;5.454;2023-04-29T11:18:29;22.90;50.70
78733;DHT22;68056;52.530;5.454;2023-04-29T11:23:33;22.90;50.80
78733;DHT22;68056;52.530;5.454;2023-04-29T11:26:00;22.90;50.60
78733;DHT22;68056;52.530;5.454;2023-04-29T11:28:27;22.90;50.70
78733;DHT22;68056;52.530;5.454;2023-04-29T11:30:52;22.70;50.70
78733;DHT22;68056;52.530;5.454;2023-04-29T11:33:21;22.70;51.00
78733;DHT22;68056;52.530;5.454;2023-04-29T11:35:47;22.80;50.90
78733;DHT22;68056;52.530;5.454;2023-04-29T11:38:12;22.90;50.90
78733;DHT22;68056;52.530;5.454;2023-04-29T11:40:47;23.10;50.60
78733;DHT22;68056;52.530;5.454;2023-04-29T11:43:20;23.30;50.30
78733;DHT22;68056;52.530;5.454;2023-04-29T11:45:46;23.30;50.10
78733;DHT22;68056;52.530;5.454;2023-04-29T11:48:22;23.40;50.30
78733;DHT22;68056;52.530;5.454;2023-04-29T11:50:57;23.50;50.20
78733;DHT22;68056;52.530;5.454;2023-04-29T11:53:24;23.50;50.30
78733;DHT22;68056;52.530;5.454;2023-04-29T11:55:52;23.50;50.10
78733;DHT22;68056;52.530;5.454;2023-04-29T11:58:20;23.40;50.00
78733;DHT22;68056;52.530;5.454;2023-04-29T12:00:49;23.30;50.20
78733;DHT22;68056;52.530;5.454;2023-04-29T12:03:17;23.40;50.30
78733;DHT22;68056;52.530;5.454;2023-04-29T12:05:54;23.30;50.10
78733;DHT22;68056;52.530;5.454;2023-04-29T12:10:49;23.10;50.30
78733;DHT22;68056;52.530;5.454;2023-04-29T12:13:17;23.10;50.50
78733;DHT22;68056;52.530;5.454;2023-04-29T12:15:43;23.20;50.40
78733;DHT22;68056;52.530;5.454;2023-04-29T12:18:09;23.30;50.30
78733;DHT22;68056;52.530;5.454;2023-04-29T12:20:35;23.40;50.10
78733;DHT22;68056;52.530;5.454;2023-04-29T12:23:11;23.50;49.80
78733;DHT22;68056;52.530;5.454;2023-04-29T12:25:37;23.50;49.50
78733;DHT22;68056;52.530;5.454;2023-04-29T12:28:04;23.50;49.50
78733;DHT22;68056;52.530;5.454;2023-04-29T12:30:31;23.40;49.60
78733;DHT22;68056;52.530;5.454;2023-04-29T12:32:58;23.40;49.60
78733;DHT22;68056;52.530;5.454;2023-04-29T12:35:24;23.20;49.60
78733;DHT22;68056;52.530;5.454;2023-04-29T12:37:49;23.20;49.60
78733;DHT22;68056;52.530;5.454;2023-04-29T12:40:16;23.20;49.80
78733;DHT22;68056;52.530;5.454;2023-04-29T12:42:42;23.10;49.60
78733;DHT22;68056;52.530;5.454;2023-04-29T12:45:33;23.10;49.80
78733;DHT22;68056;52.530;5.454;2023-04-29T12:48:00;23.10;49.80
78733;DHT22;68056;52.530;5.454;2023-04-29T12:50:29;23.00;49.70
78733;DHT22;68056;52.530;5.454;2023-04-29T12:52:55;22.90;49.80
78733;DHT22;68056;52.530;5.454;2023-04-29T12:55:21;22.90;49.60
78733;DHT22;68056;52.530;5.454;2023-04-29T12:57:47;22.70;49.80
78733;DHT22;68056;52.530;5.454;2023-04-29T13:00:12;22.70;49.60
78733;DHT22;68056;52.530;5.454;2023-04-29T13:02:39;22.60;49.50
78733;DHT22;68056;52.530;5.454;2023-04-29T13:05:05;22.50;49.50
78733;DHT22;68056;52.530;5.454;2023-04-29T13:07:30;22.30;49.70
78733;DHT22;68056;52.530;5.454;2023-04-29T13:09:56;22.30;49.80
78733;DHT22;68056;52.530;5.454;2023-04-29T13:12:22;22.50;49.80
78733;DHT22;68056;52.530;5.454;2023-04-29T13:14:47;22.50;49.50
78733;DHT22;68056;52.530;5.454;2023-04-29T13:17:13;22.60;49.60
78733;DHT22;68056;52.530;5.454;2023-04-29T13:19:39;22.70;49.50
78733;DHT22;68056;52.530;5.454;2023-04-29T13:22:04;22.70;49.30
78733;DHT22;68056;52.530;5.454;2023-04-29T13:24:31;22.60;49.30
78733;DHT22;68056;52.530;5.454;2023-04-29T13:26:57;22.50;49.50
78733;DHT22;68056;52.530;5.454;2023-04-29T13:29:23;22.40;49.60
78733;DHT22;68056;52.530;5.454;2023-04-29T13:31:48;22.40;49.60
78733;DHT22;68056;52.530;5.454;2023-04-29T13:34:14;22.30;49.40
78733;DHT22;68056;52.530;5.454;2023-04-29T13:36:39;22.30;49.40
78733;DHT22;68056;52.530;5.454;2023-04-29T13:39:05;22.30;49.50
78733;DHT22;68056;52.530;5.454;2023-04-29T13:41:30;22.30;49.50
78733;DHT22;68056;52.530;5.454;2023-04-29T13:43:57;22.30;49.50
78733;DHT22;68056;52.530;5.454;2023-04-29T13:46:22;22.30;49.60
78733;DHT22;68056;52.530;5.454;2023-04-29T13:48:48;22.30;49.60
78733;DHT22;68056;52.530;5.454;2023-04-29T13:51:13;22.30;49.70
78733;DHT22;68056;52.530;5.454;2023-04-29T13:53:39;22.30;49.80
78733;DHT22;68056;52.530;5.454;2023-04-29T13:56:04;22.40;49.80
78733;DHT22;68056;52.530;5.454;2023-04-29T13:58:30;22.50;49.90
78733;DHT22;68056;52.530;5.454;2023-04-29T14:00:56;22.60;49.70
78733;DHT22;68056;52.530;5.454;2023-04-29T14:03:21;22.70;49.60
78733;DHT22;68056;52.530;5.454;2023-04-29T14:05:47;22.70;49.50
78733;DHT22;68056;52.530;5.454;2023-04-29T14:08:12;22.60;49.40
78733;DHT22;68056;52.530;5.454;2023-04-29T14:10:38;22.50;49.40
78733;DHT22;68056;52.530;5.454;2023-04-29T14:13:04;22.50;49.40
78733;DHT22;68056;52.530;5.454;2023-04-29T14:15:29;22.50;49.30
78733;DHT22;68056;52.530;5.454;2023-04-29T14:17:55;22.30;49.00
78733;DHT22;68056;52.530;5.454;2023-04-29T14:20:21;22.20;48.80
78733;DHT22;68056;52.530;5.454;2023-04-29T14:22:47;22.10;48.70
78733;DHT22;68056;52.530;5.454;2023-04-29T14:25:13;22.00;48.90
78733;DHT22;68056;52.530;5.454;2023-04-29T14:27:39;22.00;49.00
78733;DHT22;68056;52.530;5.454;2023-04-29T14:30:05;21.90;48.70
78733;DHT22;68056;52.530;5.454;2023-04-29T14:32:31;21.90;48.60
78733;DHT22;68056;52.530;5.454;2023-04-29T14:34:57;21.70;48.60
78733;DHT22;68056;52.530;5.454;2023-04-29T14:37:23;21.50;48.60
78733;DHT22;68056;52.530;5.454;2023-04-29T14:39:48;21.40;48.60
78733;DHT22;68056;52.530;5.454;2023-04-29T14:42:14;21.20;48.60
78733;DHT22;68056;52.530;5.454;2023-04-29T14:44:39;21.20;48.60
78733;DHT22;68056;52.530;5.454;2023-04-29T14:47:05;21.10;48.40
78733;DHT22;68056;52.530;5.454;2023-04-29T14:49:31;21.10;48.50
78733;DHT22;68056;52.530;5.454;2023-04-29T14:51:56;21.10;48.30
78733;DHT22;68056;52.530;5.454;2023-04-29T14:54:22;20.90;48.10
78733;DHT22;68056;52.530;5.454;2023-04-29T14:56:48;20.90;48.20
78733;DHT22;68056;52.530;5.454;2023-04-29T14:59:14;20.80;48.30
78733;DHT22;68056;52.530;5.454;2023-04-29T15:01:41;20.80;48.30
78733;DHT22;68056;52.530;5.454;2023-04-29T15:04:06;20.70;48.50
78733;DHT22;68056;52.530;5.454;2023-04-29T15:06:32;20.70;48.50
78733;DHT22;68056;52.530;5.454;2023-04-29T15:08:57;20.60;48.30
78733;DHT22;68056;52.530;5.454;2023-04-29T15:11:23;20.50;48.20
78733;DHT22;68056;52.530;5.454;2023-04-29T15:13:50;20.30;48.40
78733;DHT22;68056;52.530;5.454;2023-04-29T15:16:16;20.00;48.80
78733;DHT22;68056;52.530;5.454;2023-04-29T15:18:41;20.00;49.10
78733;DHT22;68056;52.530;5.454;2023-04-29T15:21:07;19.70;49.40
78733;DHT22;68056;52.530;5.454;2023-04-29T15:23:32;19.50;49.70
78733;DHT22;68056;52.530;5.454;2023-04-29T15:25:58;19.20;49.90
78733;DHT22;68056;52.530;5.454;2023-04-29T15:28:24;19.10;50.10
78733;DHT22;68056;52.530;5.454;2023-04-29T15:30:50;19.00;50.20
78733;DHT22;68056;52.530;5.454;2023-04-29T15:33:16;18.90;50.40
78733;DHT22;68056;52.530;5.454;2023-04-29T15:35:41;18.80;50.50
78733;DHT22;68056;52.530;5.454;2023-04-29T15:38:07;18.60;50.50
78733;DHT22;68056;52.530;5.454;2023-04-29T15:40:33;18.40;50.40
78733;DHT22;68056;52.530;5.454;2023-04-29T15:42:58;18.20;50.50
78733;DHT22;68056;52.530;5.454;2023-04-29T15:45:24;18.10;50.50
78733;DHT22;68056;52.530;5.454;2023-04-29T15:47:50;18.00;50.50
78733;DHT22;68056;52.530;5.454;2023-04-29T15:50:15;18.00;50.40